createdAt,value
2022-12-23T00:01:40.814Z,97285.73
2022-12-23T00:04:10.799Z,97284.70
2022-12-23T00:06:39.179Z,97281.77
2022-12-23T00:09:09.001Z,97280.70
2022-12-23T00:11:38.849Z,97283.89
2022-12-23T00:14:25.213Z,97281.23
2022-12-23T00:16:53.332Z,97283.89
2022-12-23T00:19:21.570Z,97286.28
2022-12-23T00:21:49.915Z,97284.42
2022-12-23T00:24:17.885Z,97280.70
2022-12-23T00:26:45.736Z,97281.23
2022-12-23T00:29:13.740Z,97284.70
2022-12-23T00:31:41.824Z,97286.81
2022-12-23T00:34:12.043Z,97288.14
2022-12-23T00:36:41.522Z,97283.88
2022-12-23T00:39:33.771Z,97293.16
2022-12-23T00:42:19.439Z,97291.84
2022-12-23T00:44:49.642Z,97293.95
2022-12-23T00:47:39.161Z,97286.82
2022-12-23T00:50:08.581Z,97288.14
2022-12-23T00:52:36.337Z,97284.17
2022-12-23T00:55:05.150Z,97279.66
2022-12-23T00:57:33.083Z,97283.89
2022-12-23T01:00:00.847Z,97286.26
2022-12-23T01:02:47.132Z,97271.43
2022-12-23T01:05:33.886Z,97275.91
2022-12-23T01:08:01.704Z,97273.27
2022-12-23T01:10:29.617Z,97279.36
2022-12-23T01:12:57.429Z,97278.03
2022-12-23T01:15:25.161Z,97279.64
2022-12-23T01:17:52.970Z,97282.80
2022-12-23T01:20:20.733Z,97274.06
2022-12-23T01:22:49.088Z,97282.02
2022-12-23T01:25:17.553Z,97279.36
2022-12-23T01:27:45.411Z,97285.45
2022-12-23T01:30:14.041Z,97277.50
2022-12-23T01:32:41.810Z,97279.08
2022-12-23T01:35:09.572Z,97280.69
2022-12-23T01:37:37.526Z,97277.76
2022-12-23T01:40:07.241Z,97268.73
2022-12-23T01:42:43.902Z,97275.64
2022-12-23T01:45:22.764Z,97270.88
2022-12-23T01:48:10.229Z,97266.08
2022-12-23T01:50:45.720Z,97266.36
2022-12-23T01:53:22.291Z,97267.97
2022-12-23T01:55:58.750Z,97258.44
2022-12-23T01:58:48.396Z,97254.45
2022-12-23T02:01:34.899Z,97257.92
2022-12-23T02:04:12.346Z,97257.13
2022-12-23T02:07:01.999Z,97255.02
2022-12-23T02:09:34.282Z,97251.04
2022-12-23T02:12:45.980Z,97250.76
2022-12-23T02:15:59.015Z,97244.13
2022-12-23T02:18:48.566Z,97243.88
2022-12-23T02:21:41.862Z,97253.95
2022-12-23T02:24:30.396Z,97255.27
2022-12-23T02:27:03.567Z,97256.06
2022-12-23T02:30:01.011Z,97256.59
2022-12-23T02:32:55.752Z,97249.71
2022-12-23T02:35:49.288Z,97247.86
2022-12-23T02:38:48.544Z,97246.53
2022-12-23T02:41:35.980Z,97246.53
2022-12-23T02:44:46.152Z,97238.04
2022-12-23T02:47:37.285Z,97234.06
2022-12-23T02:50:15.942Z,97238.31
2022-12-23T02:52:46.707Z,97241.22
2022-12-23T02:55:22.313Z,97240.97
2022-12-23T02:57:54.554Z,97243.62
2022-12-23T03:00:22.891Z,97242.55
2022-12-23T03:02:51.071Z,97236.73
2022-12-23T03:05:33.175Z,97245.20
2022-12-23T03:08:07.063Z,97243.34
2022-12-23T03:10:57.080Z,97238.58
2022-12-23T03:13:49.743Z,97231.95
2022-12-23T03:16:24.846Z,97245.20
2022-12-23T03:19:07.207Z,97236.18
2022-12-23T03:21:54.440Z,97239.36
2022-12-23T03:25:11.109Z,97235.39
2022-12-23T03:27:47.221Z,97236.72
2022-12-23T03:30:18.418Z,97236.72
2022-12-23T03:33:06.886Z,97234.59
2022-12-23T03:35:39.698Z,97229.55
2022-12-23T03:38:10.145Z,97232.20
2022-12-23T03:40:41.616Z,97236.97
2022-12-23T03:43:17.928Z,97229.02
2022-12-23T03:45:50.643Z,97230.62
2022-12-23T03:48:35.559Z,97230.09
2022-12-23T03:51:14.532Z,97225.33
2022-12-23T03:53:53.345Z,97221.36
2022-12-23T03:56:32.203Z,97216.30
2022-12-23T03:59:08.290Z,97220.81
2022-12-23T04:02:10.685Z,97220.03
2022-12-23T04:05:19.658Z,97217.09
2022-12-23T04:07:58.011Z,97220.81
2022-12-23T04:10:27.068Z,97217.38
2022-12-23T04:12:55.120Z,97213.94
2022-12-23T04:15:25.551Z,97216.59
2022-12-23T04:17:58.049Z,97216.59
2022-12-23T04:20:25.764Z,97214.73
2022-12-23T04:22:53.505Z,97218.16
2022-12-23T04:25:21.051Z,97215.23
2022-12-23T04:27:48.961Z,97209.40
2022-12-23T04:30:18.202Z,97209.94
2022-12-23T04:32:46.041Z,97210.44
2022-12-23T04:35:13.900Z,97211.52
2022-12-23T04:37:41.829Z,97208.05
2022-12-23T04:40:09.948Z,97204.35
2022-12-23T04:42:37.678Z,97195.33
2022-12-23T04:45:06.507Z,97195.33
2022-12-23T04:47:35.145Z,97205.11
2022-12-23T04:50:04.055Z,97208.05
2022-12-23T04:52:31.675Z,97209.63
2022-12-23T04:54:59.297Z,97205.89
2022-12-23T04:57:27.247Z,97210.16
2022-12-23T04:59:55.196Z,97204.03
2022-12-23T05:02:23.301Z,97206.19
2022-12-23T05:04:51.196Z,97209.09
2022-12-23T05:07:19.037Z,97201.13
2022-12-23T05:09:46.641Z,97199.27
2022-12-23T05:12:14.536Z,97199.80
2022-12-23T05:14:42.229Z,97208.01
2022-12-23T05:17:10.150Z,97207.47
2022-12-23T05:19:37.757Z,97206.40
2022-12-23T05:22:05.441Z,97201.63
2022-12-23T05:24:33.252Z,97203.20
2022-12-23T05:27:00.972Z,97215.39
2022-12-23T05:29:29.175Z,97209.30
2022-12-23T05:31:56.994Z,97205.58
2022-12-23T05:34:24.796Z,97203.45
2022-12-23T05:36:52.535Z,97194.97
2022-12-23T05:39:20.532Z,97195.79
2022-12-23T05:41:48.397Z,97197.12
2022-12-23T05:44:15.967Z,97193.14
2022-12-23T05:46:43.920Z,97186.52
2022-12-23T05:49:11.759Z,97188.91
2022-12-23T05:51:39.661Z,97188.91
2022-12-23T05:54:07.368Z,97204.82
2022-12-23T05:56:35.299Z,97208.80
2022-12-23T05:59:04.034Z,97202.42
2022-12-23T06:01:32.477Z,97197.91
2022-12-23T06:04:00.247Z,97200.02
2022-12-23T06:06:30.003Z,97197.91
2022-12-23T06:09:00.076Z,97196.30
2022-12-23T06:11:27.436Z,97194.96
2022-12-23T06:13:55.021Z,97194.67
2022-12-23T06:16:22.936Z,97189.13
2022-12-23T06:18:57.837Z,97189.37
2022-12-23T06:21:25.558Z,97186.19
2022-12-23T06:23:53.066Z,97187.80
2022-12-23T06:26:21.271Z,97189.37
2022-12-23T06:28:49.397Z,97198.16
2022-12-23T06:31:18.880Z,97202.67
2022-12-23T06:33:49.651Z,97214.06
2022-12-23T06:36:18.435Z,97216.72
2022-12-23T06:38:46.112Z,97211.95
2022-12-23T06:41:15.649Z,97216.44
2022-12-23T06:43:43.507Z,97216.97
2022-12-23T06:46:11.902Z,97210.05
2022-12-23T06:48:40.194Z,97215.89
2022-12-23T06:51:10.695Z,97218.00
2022-12-23T06:53:39.138Z,97218.51
2022-12-23T06:56:07.290Z,97220.63
2022-12-23T06:58:35.064Z,97224.84
2022-12-23T07:01:05.859Z,97227.23
2022-12-23T07:03:33.864Z,97231.19
2022-12-23T07:06:01.955Z,97241.26
2022-12-23T07:08:29.702Z,97238.60
2022-12-23T07:10:59.729Z,97241.25
2022-12-23T07:13:27.511Z,97239.39
2022-12-23T07:15:55.181Z,97233.83
2022-12-23T07:18:23.595Z,97233.83
2022-12-23T07:20:52.219Z,97240.97
2022-12-23T07:23:19.884Z,97235.16
2022-12-23T07:25:47.447Z,97237.53
2022-12-23T07:28:15.149Z,97242.33
2022-12-23T07:30:42.856Z,97242.33
2022-12-23T07:33:10.778Z,97243.66
2022-12-23T07:35:38.330Z,97245.48
2022-12-23T07:38:05.968Z,97244.40
2022-12-23T07:40:33.455Z,97246.27
2022-12-23T07:43:01.624Z,97251.29
2022-12-23T07:45:31.786Z,97247.59
2022-12-23T07:48:01.756Z,97250.50
2022-12-23T07:50:29.506Z,97251.57
2022-12-23T07:52:57.504Z,97257.37
2022-12-23T07:55:25.277Z,97260.28
2022-12-23T07:57:53.164Z,97264.80
2022-12-23T08:00:21.786Z,97265.58
2022-12-23T08:02:49.575Z,97267.16
2022-12-23T08:05:18.339Z,97270.89
2022-12-23T08:07:48.305Z,97276.45
2022-12-23T08:10:16.235Z,97276.44
2022-12-23T08:12:46.102Z,97276.16
2022-12-23T08:15:13.974Z,97278.55
2022-12-23T08:17:41.526Z,97282.25
2022-12-23T08:20:09.833Z,97286.52
2022-12-23T08:22:37.671Z,97282.25
2022-12-23T08:25:06.234Z,97287.06
2022-12-23T08:27:37.281Z,97283.08
2022-12-23T08:30:06.505Z,97286.81
2022-12-23T08:32:34.163Z,97292.37
2022-12-23T08:35:02.886Z,97291.55
2022-12-23T08:37:30.915Z,97285.98
2022-12-23T08:39:58.944Z,97281.45
2022-12-23T08:42:29.769Z,97283.32
2022-12-23T08:44:58.639Z,97278.80
2022-12-23T08:47:26.163Z,97284.61
2022-12-23T08:49:55.443Z,97273.19
2022-12-23T08:52:23.200Z,97275.02
2022-12-23T08:54:50.967Z,97276.34
2022-12-23T08:57:18.468Z,97273.41
2022-12-23T08:59:49.316Z,97270.20
2022-12-23T09:02:18.438Z,97271.23
2022-12-23T09:04:46.329Z,97258.98
2022-12-23T09:07:13.938Z,97253.10
2022-12-23T09:09:41.780Z,97253.05
2022-12-23T09:12:11.420Z,97250.55
2022-12-23T09:14:39.668Z,97258.92
2022-12-23T09:17:07.469Z,97252.97
2022-12-23T09:19:35.166Z,97251.80
2022-12-23T09:22:02.781Z,97249.29
2022-12-23T09:24:32.308Z,97241.77
2022-12-23T09:27:00.113Z,97243.63
2022-12-23T09:29:27.843Z,97244.89
2022-12-23T09:31:55.479Z,97248.50
2022-12-23T09:34:26.431Z,97237.95
2022-12-23T09:36:55.633Z,97233.84
2022-12-23T09:39:23.883Z,97234.83
2022-12-23T09:42:02.931Z,97238.14
2022-12-23T09:45:00.651Z,97243.07
2022-12-23T09:47:31.364Z,97246.94
2022-12-23T09:50:16.461Z,97253.45
2022-12-23T09:53:07.094Z,97244.59
2022-12-23T09:55:46.089Z,97256.47
2022-12-23T09:58:37.321Z,97259.34
2022-12-23T10:01:44.823Z,97248.66
2022-12-23T10:04:38.541Z,97246.24
2022-12-23T10:07:23.639Z,97247.55
2022-12-23T10:09:54.682Z,97241.64
2022-12-23T10:12:40.316Z,97237.07
2022-12-23T10:15:19.504Z,97230.89
2022-12-23T10:17:51.605Z,97241.52
2022-12-23T10:20:31.007Z,97242.52
2022-12-23T10:23:00.331Z,97247.27
2022-12-23T10:25:39.148Z,97246.48
2022-12-23T10:28:09.840Z,97233.41
2022-12-23T10:33:19.275Z,97229.00
2022-12-23T10:36:05.311Z,97230.00
2022-12-23T10:39:16.501Z,97227.55
2022-12-23T10:42:24.840Z,97222.11
2022-12-23T10:45:23.286Z,97218.25
2022-12-23T10:48:21.129Z,97224.27
2022-12-23T10:51:03.153Z,97218.91
2022-12-23T10:54:06.997Z,97216.20
2022-12-23T10:56:34.557Z,97215.34
2022-12-23T10:59:02.224Z,97221.97
2022-12-23T11:01:33.063Z,97217.16
2022-12-23T11:04:14.249Z,97211.51
2022-12-23T11:06:46.754Z,97206.96
2022-12-23T11:09:22.765Z,97205.08
2022-12-23T11:12:02.569Z,97200.30
2022-12-23T11:14:44.523Z,97199.75
2022-12-23T11:17:29.129Z,97198.96
2022-12-23T11:20:13.685Z,97205.63
2022-12-23T11:22:51.869Z,97205.90
2022-12-23T11:25:42.303Z,97204.30
2022-12-23T11:28:21.433Z,97205.94
2022-12-23T11:30:56.553Z,97204.60
2022-12-23T11:33:37.856Z,97205.63
2022-12-23T11:36:17.378Z,97206.42
2022-12-23T11:39:08.697Z,97204.26
2022-12-23T11:41:47.625Z,97205.28
2022-12-23T11:44:35.570Z,97205.00
2022-12-23T11:47:25.532Z,97204.45
2022-12-23T11:50:02.671Z,97207.36
2022-12-23T11:52:33.456Z,97211.09
2022-12-23T11:55:04.136Z,97207.88
2022-12-23T11:57:47.930Z,97209.20
2022-12-23T12:00:28.419Z,97205.48
2022-12-23T12:03:03.663Z,97200.97
2022-12-23T12:05:48.048Z,97200.77
2022-12-23T12:08:23.203Z,97202.92
2022-12-23T12:10:53.513Z,97210.62
2022-12-23T12:13:40.952Z,97207.12
2022-12-23T12:16:54.294Z,97203.36
2022-12-23T12:19:35.035Z,97208.97
2022-12-23T12:22:11.104Z,97210.82
2022-12-23T12:24:50.089Z,97208.46
2022-12-23T12:27:19.796Z,97215.91
2022-12-23T12:30:07.695Z,97210.41
2022-12-23T12:32:49.145Z,97208.20
2022-12-23T12:35:43.542Z,97206.49
2022-12-23T12:38:29.732Z,97204.79
2022-12-23T12:41:17.816Z,97212.71
2022-12-23T12:43:56.795Z,97214.66
2022-12-23T12:46:33.451Z,97211.75
2022-12-23T12:49:26.875Z,97204.06
2022-12-23T12:52:13.694Z,97199.52
2022-12-23T12:55:08.120Z,97194.77
2022-12-23T12:57:36.531Z,97195.10
2022-12-23T13:00:07.129Z,97203.34
2022-12-23T13:03:21.741Z,97208.39
2022-12-23T13:06:16.410Z,97217.11
2022-12-23T13:09:01.727Z,97212.84
2022-12-23T13:11:44.654Z,97215.47
2022-12-23T13:14:43.433Z,97215.16
2022-12-23T13:17:25.490Z,97199.72
2022-12-23T13:20:24.368Z,97200.51
2022-12-23T13:23:06.339Z,97196.52
2022-12-23T13:25:32.684Z,97196.75
2022-12-23T13:28:17.830Z,97194.97
2022-12-23T13:31:16.578Z,97196.34
2022-12-23T13:34:04.856Z,97199.06
2022-12-23T13:36:50.418Z,97209.21
2022-12-23T13:39:38.480Z,97200.22
2022-12-23T13:42:11.433Z,97200.22
2022-12-23T13:44:39.479Z,97212.70
2022-12-23T13:47:30.326Z,97207.91
2022-12-23T13:50:15.709Z,97204.48
2022-12-23T13:53:20.021Z,97200.28
2022-12-23T13:56:11.060Z,97208.37
2022-12-23T13:58:40.507Z,97197.30
2022-12-23T14:01:13.683Z,97197.35
2022-12-23T14:03:41.667Z,97201.41
2022-12-23T14:06:36.281Z,97202.22
2022-12-23T14:09:04.747Z,97197.69
2022-12-23T14:11:33.968Z,97200.86
2022-12-23T14:14:07.885Z,97214.94
2022-12-23T14:17:04.963Z,97214.09
2022-12-23T14:19:47.151Z,97221.81
2022-12-23T14:22:52.249Z,97223.39
2022-12-23T14:25:57.911Z,97223.93
2022-12-23T14:28:47.518Z,97222.84
2022-12-23T14:31:32.802Z,97230.83
2022-12-23T14:34:08.058Z,97230.28
2022-12-23T14:36:35.870Z,97224.41
2022-12-23T14:39:17.970Z,97227.08
2022-12-23T14:41:52.178Z,97231.34
2022-12-23T14:44:43.160Z,97230.80
2022-12-23T14:47:36.073Z,97234.80
2022-12-23T14:50:34.034Z,97235.05
2022-12-23T14:53:26.193Z,97242.25
2022-12-23T14:56:38.580Z,97240.67
2022-12-23T14:59:47.718Z,97245.45
2022-12-23T15:02:37.241Z,97252.91
2022-12-23T15:05:05.908Z,97250.54
2022-12-23T15:07:38.112Z,97245.00
2022-12-23T15:10:16.153Z,97247.66
2022-12-23T15:12:57.099Z,97247.12
2022-12-23T15:15:28.134Z,97245.52
2022-12-23T15:18:12.004Z,97247.17
2022-12-23T15:20:40.388Z,97242.17
2022-12-23T15:23:14.817Z,97238.75
2022-12-23T15:25:48.454Z,97238.81
2022-12-23T15:28:30.465Z,97245.73
2022-12-23T15:30:58.155Z,97247.38
2022-12-23T15:36:04.010Z,97245.08
2022-12-23T15:38:35.858Z,97244.87
2022-12-23T15:41:14.752Z,97246.28
2022-12-23T15:43:43.999Z,97241.52
2022-12-23T15:46:28.530Z,97236.77
2022-12-23T15:48:51.241Z,97239.42
2022-12-23T15:54:08.282Z,97233.61
2022-12-23T15:56:39.720Z,97228.06
2022-12-23T15:59:12.716Z,97230.78
2022-12-23T16:01:41.580Z,97223.06
2022-12-23T16:04:15.084Z,97210.87
2022-12-23T16:06:51.254Z,97209.05
2022-12-23T16:09:24.803Z,97219.70
2022-12-23T16:12:06.477Z,97217.84
2022-12-23T16:14:38.853Z,97216.81
2022-12-23T16:17:13.459Z,97216.54
2022-12-23T16:19:55.588Z,97219.80
2022-12-23T16:22:30.361Z,97220.06
2022-12-23T16:25:21.937Z,97220.36
2022-12-23T16:27:57.598Z,97215.85
2022-12-23T16:30:35.316Z,97212.16
2022-12-23T16:33:08.249Z,97213.27
2022-12-23T16:35:42.697Z,97212.75
2022-12-23T16:38:21.355Z,97220.48
2022-12-23T16:40:54.851Z,97221.53
2022-12-23T16:43:24.737Z,97211.19
2022-12-23T16:45:55.815Z,97210.41
2022-12-23T16:48:30.829Z,97207.77
2022-12-23T16:50:59.853Z,97204.86
2022-12-23T16:53:27.937Z,97203.28
2022-12-23T16:56:00.528Z,97207.55
2022-12-23T16:58:25.252Z,97203.01
2022-12-23T17:00:53.256Z,97207.30
2022-12-23T17:03:21.290Z,97203.06
2022-12-23T17:05:49.076Z,97200.67
2022-12-23T17:08:17.154Z,97205.20
2022-12-23T17:10:45.405Z,97207.61
2022-12-23T17:13:17.105Z,97206.01
2022-12-23T17:15:45.317Z,97211.08
2022-12-23T17:18:16.827Z,97198.87
2022-12-23T17:20:46.289Z,97201.80
2022-12-23T17:23:32.027Z,97202.34
2022-12-23T17:25:59.548Z,97195.14
2022-12-23T17:28:31.605Z,97188.00
2022-12-23T17:31:00.733Z,97188.27
2022-12-23T17:33:31.336Z,97189.11
2022-12-23T17:36:00.093Z,97189.36
2022-12-23T17:38:30.870Z,97182.73
2022-12-23T17:40:58.771Z,97180.61
2022-12-23T17:43:26.659Z,97183.05
2022-12-23T17:45:54.461Z,97187.87
2022-12-23T17:48:28.009Z,97187.34
2022-12-23T17:50:51.779Z,97183.13
2022-12-23T17:53:19.885Z,97183.94
2022-12-23T17:55:47.517Z,97182.95
2022-12-23T17:58:16.248Z,97180.59
2022-12-23T18:00:43.912Z,97176.91
2022-12-23T18:03:22.282Z,97173.25
2022-12-23T18:05:52.973Z,97170.38
2022-12-23T18:08:19.745Z,97159.57
2022-12-23T18:10:47.588Z,97155.08
2022-12-23T18:13:18.645Z,97149.28
2022-12-23T18:15:47.346Z,97139.23
2022-12-23T18:18:26.455Z,97142.49
2022-12-23T18:20:52.373Z,97137.75
2022-12-23T18:23:27.634Z,97141.56
2022-12-23T18:25:56.955Z,97132.84
2022-12-23T18:28:26.081Z,97150.97
2022-12-23T18:30:57.072Z,97157.13
2022-12-23T18:33:26.712Z,97160.63
2022-12-23T18:35:54.573Z,97150.56
2022-12-23T18:38:22.508Z,97157.24
2022-12-23T18:40:52.097Z,97160.70
2022-12-23T18:43:23.250Z,97164.44
2022-12-23T18:45:53.526Z,97169.75
2022-12-23T18:48:21.994Z,97176.14
2022-12-23T18:50:49.559Z,97175.36
2022-12-23T18:53:25.168Z,97179.09
2022-12-23T18:55:54.422Z,97176.19
2022-12-23T18:58:22.889Z,97176.44
2022-12-23T19:00:54.854Z,97177.78
2022-12-23T19:03:29.633Z,97171.43
2022-12-23T19:06:03.774Z,97180.18
2022-12-23T19:08:31.592Z,97180.97
2022-12-23T19:11:00.388Z,97189.22
2022-12-23T19:13:28.208Z,97180.47
2022-12-23T19:15:56.241Z,97184.70
2022-12-23T19:18:24.656Z,97183.38
2022-12-23T19:20:52.323Z,97177.81
2022-12-23T19:23:19.941Z,97179.40
2022-12-23T19:25:54.828Z,97174.63
2022-12-23T19:28:17.328Z,97170.36
2022-12-23T19:30:45.321Z,97178.86
2022-12-23T19:33:13.099Z,97186.28
2022-12-23T19:35:42.191Z,97182.83
2022-12-23T19:38:10.343Z,97178.31
2022-12-23T19:40:38.201Z,97172.20
2022-12-23T19:43:06.290Z,97176.97
2022-12-23T19:45:34.138Z,97174.03
2022-12-23T19:48:01.912Z,97171.91
2022-12-23T19:50:30.000Z,97179.05
2022-12-23T19:53:01.761Z,97172.69
2022-12-23T19:55:31.854Z,97170.78
2022-12-23T19:57:59.507Z,97164.92
2022-12-23T20:00:27.261Z,97154.59
2022-12-23T20:02:58.859Z,97146.88
2022-12-23T20:05:26.724Z,97138.08
2022-12-23T20:07:56.160Z,97136.20
2022-12-23T20:10:23.917Z,97135.16
2022-12-23T20:12:51.494Z,97136.19
2022-12-23T20:15:19.369Z,97126.36
2022-12-23T20:17:47.443Z,97121.34
2022-12-23T20:20:15.686Z,97122.92
2022-12-23T20:22:43.588Z,97124.25
2022-12-23T20:25:11.624Z,97114.95
2022-12-23T20:27:42.053Z,97112.05
2022-12-23T20:30:11.153Z,97119.48
2022-12-23T20:32:40.070Z,97125.83
2022-12-23T20:35:11.496Z,97126.36
2022-12-23T20:37:39.187Z,97122.38
2022-12-23T20:40:08.965Z,97128.48
2022-12-23T20:42:37.240Z,97131.13
2022-12-23T20:45:06.241Z,97131.92
2022-12-23T20:47:35.925Z,97138.30
2022-12-23T20:50:04.255Z,97136.67
2022-12-23T20:52:32.483Z,97141.73
2022-12-23T20:55:01.149Z,97146.19
2022-12-23T20:57:28.973Z,97139.55
2022-12-23T20:59:57.083Z,97140.86
2022-12-23T21:02:27.860Z,97149.55
2022-12-23T21:04:55.523Z,97150.04
2022-12-23T21:07:26.412Z,97150.31
2022-12-23T21:09:54.349Z,97150.01
2022-12-23T21:12:22.699Z,97138.31
2022-12-23T21:14:51.309Z,97144.70
2022-12-23T21:17:20.644Z,97137.81
2022-12-23T21:19:51.391Z,97144.41
2022-12-23T21:22:19.650Z,97135.11
2022-12-23T21:24:47.523Z,97136.44
2022-12-23T21:27:16.868Z,97134.08
2022-12-23T21:29:44.786Z,97128.47
2022-12-23T21:32:12.650Z,97123.45
2022-12-23T21:34:42.504Z,97110.17
2022-12-23T21:37:10.530Z,97097.45
2022-12-23T21:39:38.236Z,97099.07
2022-12-23T21:42:06.442Z,97121.59
2022-12-23T21:44:34.169Z,97132.50
2022-12-23T21:47:02.335Z,97126.91
2022-12-23T21:49:30.451Z,97127.44
2022-12-23T21:51:58.389Z,97123.70
2022-12-23T21:54:26.244Z,97116.80
2022-12-23T21:56:55.268Z,97117.83
2022-12-23T21:59:23.205Z,97113.30
2022-12-23T22:01:51.664Z,97122.83
2022-12-23T22:04:22.109Z,97125.22
2022-12-23T22:06:50.094Z,97127.83
2022-12-23T22:09:19.824Z,97125.70
2022-12-23T22:11:48.160Z,97126.73
2022-12-23T22:14:19.052Z,97130.45
2022-12-23T22:16:47.715Z,97137.08
2022-12-23T22:19:15.968Z,97138.64
2022-12-23T22:21:44.954Z,97135.94
2022-12-23T22:24:13.265Z,97133.51
2022-12-23T22:26:42.552Z,97131.62
2022-12-23T22:29:11.390Z,97127.86
2022-12-23T22:31:49.503Z,97122.53
2022-12-23T22:34:22.608Z,97120.39
2022-12-23T22:36:50.763Z,97110.00
2022-12-23T22:39:22.014Z,97117.42
2022-12-23T22:41:52.092Z,97115.00
2022-12-23T22:44:20.909Z,97117.09
2022-12-23T22:46:49.436Z,97114.20
2022-12-23T22:49:17.753Z,97118.19
2022-12-23T22:51:45.629Z,97117.64
2022-12-23T22:54:13.950Z,97112.57
2022-12-23T22:56:42.269Z,97113.37
2022-12-23T22:59:21.497Z,97112.34
2022-12-23T23:01:50.989Z,97105.16
2022-12-23T23:04:18.932Z,97099.30
2022-12-23T23:06:49.222Z,97100.36
2022-12-23T23:09:19.706Z,97104.06
2022-12-23T23:11:49.111Z,97104.59
2022-12-23T23:14:18.012Z,97097.95
2022-12-23T23:16:45.810Z,97104.06
2022-12-23T23:19:14.560Z,97097.93
2022-12-23T23:21:42.555Z,97097.39
2022-12-23T23:24:11.485Z,97097.87
2022-12-23T23:26:39.142Z,97098.94
2022-12-23T23:29:06.981Z,97091.21
2022-12-23T23:31:43.659Z,97090.41
2022-12-23T23:34:04.605Z,97083.73
2022-12-23T23:36:31.872Z,97083.95
2022-12-23T23:38:59.437Z,97074.64
2022-12-23T23:41:27.238Z,97068.00
2022-12-23T23:43:55.190Z,97070.38
2022-12-23T23:46:22.963Z,97075.98
2022-12-23T23:48:50.683Z,97072.78
2022-12-23T23:51:18.849Z,97072.78
2022-12-23T23:53:46.249Z,97073.81
2022-12-23T23:56:14.202Z,97070.61
2022-12-23T23:58:42.309Z,97069.28
